createdAt,value
2018-01-03T00:00:40.875Z,0
2018-01-03T00:01:41.015Z,0
2018-01-03T00:02:41.502Z,0
2018-01-03T00:03:40.951Z,0
2018-01-03T00:04:41.583Z,0
2018-01-03T00:05:41.537Z,0
2018-01-03T00:06:41.449Z,0
2018-01-03T00:07:41.888Z,0
2018-01-03T00:08:42.018Z,0
2018-01-03T00:09:42.032Z,0
2018-01-03T00:10:42.423Z,0
2018-01-03T00:11:42.424Z,0
2018-01-03T00:12:41.949Z,0
2018-01-03T00:13:42.632Z,0
2018-01-03T00:14:42.391Z,0
2018-01-03T00:15:42.269Z,0
2018-01-03T00:16:42.812Z,0
2018-01-03T00:17:42.818Z,0
2018-01-03T00:18:42.774Z,0
2018-01-03T00:19:43.211Z,0
2018-01-03T00:20:43.331Z,0
2018-01-03T00:21:43.508Z,0
2018-01-03T00:22:43.810Z,0
2018-01-03T00:23:43.702Z,0
2018-01-03T00:24:44.406Z,0
2018-01-03T00:25:43.555Z,0
2018-01-03T00:26:43.971Z,0
2018-01-03T00:27:43.602Z,0
2018-01-03T00:28:44.408Z,0
2018-01-03T00:29:45.212Z,0
2018-01-03T00:30:44.358Z,0
2018-01-03T00:31:44.192Z,0
2018-01-03T00:32:44.819Z,0
2018-01-03T00:33:45.540Z,0
2018-01-03T00:34:46.410Z,0
2018-01-03T00:35:45.235Z,0
2018-01-03T00:36:45.489Z,0
2018-01-03T00:37:45.116Z,0
2018-01-03T00:38:45.297Z,0
2018-01-03T00:39:45.949Z,0
2018-01-03T00:40:45.082Z,0
2018-01-03T00:41:45.645Z,0
2018-01-03T00:42:46.362Z,0
2018-01-03T00:43:46.042Z,0
2018-01-03T00:44:46.015Z,0
2018-01-03T00:45:45.933Z,0
2018-01-03T00:46:45.775Z,0
2018-01-03T00:47:45.981Z,0
2018-01-03T00:48:46.624Z,0
2018-01-03T00:49:46.671Z,0
2018-01-03T00:50:46.079Z,0
2018-01-03T00:51:47.153Z,0
2018-01-03T00:52:47.165Z,0
2018-01-03T00:53:46.773Z,0
2018-01-03T00:54:46.785Z,0
2018-01-03T00:55:46.447Z,0
2018-01-03T00:56:46.421Z,0
2018-01-03T00:57:47.592Z,0
2018-01-03T00:58:47.060Z,0
2018-01-03T00:59:47.326Z,0
2018-01-03T01:00:47.302Z,0
2018-01-03T01:01:47.410Z,0
2018-01-03T01:02:48.016Z,0
2018-01-03T01:03:47.837Z,0
2018-01-03T01:04:47.846Z,0
2018-01-03T01:05:47.531Z,0
2018-01-03T01:06:48.987Z,0
2018-01-03T01:07:48.065Z,0
2018-01-03T01:08:48.408Z,0
2018-01-03T01:09:48.159Z,0
2018-01-03T01:10:48.362Z,0
2018-01-03T01:11:48.810Z,0
2018-01-03T01:12:48.843Z,0
2018-01-03T01:13:48.616Z,0
2018-01-03T01:14:48.470Z,0
2018-01-03T01:15:48.898Z,0
2018-01-03T01:17:05.461Z,0
2018-01-03T01:18:04.599Z,0
2018-01-03T01:18:50.222Z,0
2018-01-03T01:19:49.956Z,0
2018-01-03T01:20:50.523Z,0
2018-01-03T01:21:50.711Z,0
2018-01-03T01:22:50.640Z,0
2018-01-03T01:23:50.467Z,0
2018-01-03T01:24:51.033Z,0
2018-01-03T01:25:51.440Z,0
2018-01-03T01:26:51.814Z,0
2018-01-03T01:27:51.571Z,0
2018-01-03T01:28:51.740Z,0
2018-01-03T01:29:51.979Z,0
2018-01-03T01:30:52.095Z,0
2018-01-03T01:31:52.504Z,0
2018-01-03T01:32:52.832Z,0
2018-01-03T01:33:53.057Z,0
2018-01-03T01:34:52.413Z,0
2018-01-03T01:35:53.198Z,0
2018-01-03T01:36:53.277Z,0
2018-01-03T01:37:52.588Z,0
2018-01-03T01:38:54.111Z,0
2018-01-03T01:39:53.023Z,0
2018-01-03T01:40:53.553Z,0
2018-01-03T01:41:52.904Z,0
2018-01-03T01:42:53.741Z,0
2018-01-03T01:43:53.625Z,0
2018-01-03T01:44:53.758Z,0
2018-01-03T01:45:54.425Z,0
2018-01-03T01:46:54.586Z,0
2018-01-03T01:47:54.820Z,0
2018-01-03T01:48:54.583Z,0
2018-01-03T01:49:54.742Z,0
2018-01-03T01:50:55.155Z,0
2018-01-03T01:51:54.881Z,0
2018-01-03T01:52:55.103Z,0
2018-01-03T01:53:54.989Z,0
2018-01-03T01:54:55.534Z,0
2018-01-03T01:55:55.982Z,0
2018-01-03T01:56:56.336Z,0
2018-01-03T01:57:56.552Z,0
2018-01-03T01:58:56.785Z,0
2018-01-03T01:59:56.876Z,0
2018-01-03T02:00:56.668Z,0
2018-01-03T02:01:57.161Z,0
2018-01-03T02:02:57.601Z,0
2018-01-03T02:03:57.565Z,0
2018-01-03T02:04:57.490Z,0
2018-01-03T02:05:57.252Z,0
2018-01-03T02:06:57.120Z,0
2018-01-03T02:07:58.667Z,0
2018-01-03T02:08:58.481Z,0
2018-01-03T02:09:57.987Z,0
2018-01-03T02:10:57.731Z,0
2018-01-03T02:11:57.723Z,0
2018-01-03T02:12:58.374Z,0
2018-01-03T02:13:57.769Z,0
2018-01-03T02:14:58.460Z,0
2018-01-03T02:15:58.888Z,0
2018-01-03T02:16:59.050Z,0
2018-01-03T02:17:59.056Z,0
2018-01-03T02:18:59.570Z,0
2018-01-03T02:20:13.896Z,0
2018-01-03T02:21:14.420Z,0
2018-01-03T02:22:19.684Z,0
2018-01-03T02:23:19.558Z,0
2018-01-03T02:24:19.473Z,0
2018-01-03T02:25:20.073Z,0
2018-01-03T02:26:20.568Z,0
2018-01-03T02:27:20.314Z,0
2018-01-03T02:28:20.738Z,0
2018-01-03T02:29:21.177Z,0
2018-01-03T02:30:20.988Z,0
2018-01-03T02:31:21.400Z,0
2018-01-03T02:32:21.434Z,0
2018-01-03T02:33:22.916Z,0
2018-01-03T02:34:20.965Z,0
2018-01-03T02:35:26.166Z,0
2018-01-03T02:36:25.837Z,0
2018-01-03T02:37:26.783Z,0
2018-01-03T02:38:26.271Z,0
2018-01-03T02:39:26.964Z,0
2018-01-03T02:40:26.099Z,0
2018-01-03T02:41:26.380Z,0
2018-01-03T02:42:26.291Z,0
2018-01-03T02:43:27.190Z,0
2018-01-03T02:44:41.802Z,0
2018-01-03T02:45:26.899Z,0
2018-01-03T02:46:28.573Z,0
2018-01-03T02:47:27.361Z,0
2018-01-03T02:48:28.084Z,0
2018-01-03T02:49:28.334Z,0
2018-01-03T02:50:43.083Z,0
2018-01-03T02:51:43.090Z,0
2018-01-03T02:52:45.687Z,0
2018-01-03T02:53:43.480Z,0
2018-01-03T02:54:44.124Z,0
2018-01-03T02:55:45.244Z,0
2018-01-03T02:56:44.720Z,0
2018-01-03T02:57:45.644Z,0
2018-01-03T02:59:05.828Z,0
2018-01-03T02:59:52.049Z,0
2018-01-03T03:01:05.286Z,0
2018-01-03T03:01:51.792Z,0
2018-01-03T03:02:51.016Z,0
2018-01-03T03:03:50.819Z,0
2018-01-03T03:04:51.779Z,0
2018-01-03T03:05:51.365Z,0
2018-01-03T03:06:51.394Z,0
2018-01-03T03:07:51.652Z,0
2018-01-03T03:09:05.851Z,0
2018-01-03T03:09:52.185Z,0
2018-01-03T03:11:00.127Z,0
2018-01-03T03:11:51.500Z,0
2018-01-03T03:12:52.496Z,0
2018-01-03T03:13:52.683Z,0
2018-01-03T03:14:54.952Z,0
2018-01-03T03:15:51.983Z,0
2018-01-03T03:16:51.670Z,0
2018-01-03T03:17:57.284Z,0
2018-01-03T03:18:56.552Z,0
2018-01-03T03:20:02.494Z,0
2018-01-03T03:21:02.530Z,0
2018-01-03T03:22:04.291Z,0
2018-01-03T03:23:02.253Z,0
2018-01-03T03:24:17.258Z,0
2018-01-03T03:25:02.268Z,0
2018-01-03T03:26:16.747Z,0
2018-01-03T03:27:02.311Z,0
2018-01-03T03:28:08.364Z,0
2018-01-03T03:29:03.468Z,0
2018-01-03T03:30:02.658Z,0
2018-01-03T03:31:03.276Z,0
2018-01-03T03:32:04.030Z,0
2018-01-03T03:33:03.091Z,0
2018-01-03T03:34:01.822Z,0
2018-01-03T03:35:06.022Z,0
2018-01-03T03:36:03.929Z,0
2018-01-03T03:37:04.057Z,0
2018-01-03T03:38:05.067Z,0
2018-01-03T03:39:05.435Z,0
2018-01-03T03:40:05.015Z,0
2018-01-03T03:41:05.243Z,0
2018-01-03T03:42:04.934Z,0
2018-01-03T03:43:05.972Z,0
2018-01-03T03:44:04.907Z,0
2018-01-03T03:46:04.106Z,0
2018-01-03T03:47:03.292Z,0
2018-01-03T03:49:05.382Z,0
2018-01-03T03:50:02.759Z,0
2018-01-03T03:51:04.088Z,0
2018-01-03T03:52:03.421Z,0
2018-01-03T03:53:03.325Z,0
2018-01-03T03:54:03.484Z,0
2018-01-03T03:55:04.704Z,0
2018-01-03T03:56:03.595Z,0
2018-01-03T03:57:03.357Z,0
2018-01-03T03:58:03.922Z,0
2018-01-03T03:59:19.445Z,0
2018-01-03T04:00:18.542Z,0
2018-01-03T04:01:05.758Z,0
2018-01-03T04:02:03.713Z,0
2018-01-03T04:03:08.118Z,0
2018-01-03T04:04:04.295Z,0
2018-01-03T04:05:04.329Z,0
2018-01-03T04:06:04.889Z,0
2018-01-03T04:07:04.551Z,0
2018-01-03T04:08:19.406Z,0
2018-01-03T04:09:04.595Z,0
2018-01-03T04:10:19.469Z,0
2018-01-03T04:11:05.876Z,0
2018-01-03T04:12:04.906Z,0
2018-01-03T04:13:04.691Z,0
2018-01-03T04:14:05.285Z,0
2018-01-03T04:15:05.318Z,0
2018-01-03T04:16:06.040Z,0
2018-01-03T04:17:05.094Z,0
2018-01-03T04:18:05.558Z,0
2018-01-03T04:19:05.523Z,0
2018-01-03T04:20:06.426Z,0
2018-01-03T04:21:06.430Z,0
2018-01-03T04:22:05.960Z,0
2018-01-03T04:23:06.712Z,0
2018-01-03T04:24:06.431Z,0
2018-01-03T04:25:06.978Z,0
2018-01-03T04:26:06.955Z,0
2018-01-03T04:27:08.252Z,0
2018-01-03T04:28:07.992Z,0
2018-01-03T04:29:08.478Z,0
2018-01-03T04:30:07.983Z,0
2018-01-03T04:31:08.199Z,0
2018-01-03T04:32:08.743Z,0
2018-01-03T04:33:08.615Z,0
2018-01-03T04:34:08.295Z,0
2018-01-03T04:35:09.266Z,0
2018-01-03T04:36:09.064Z,0
2018-01-03T04:37:09.068Z,0
2018-01-03T04:38:09.226Z,0
2018-01-03T04:39:09.677Z,0
2018-01-03T04:40:10.138Z,0
2018-01-03T04:41:11.525Z,0
2018-01-03T04:42:11.453Z,0
2018-01-03T04:43:11.620Z,0
2018-01-03T04:44:11.538Z,0
2018-01-03T04:45:12.132Z,0
2018-01-03T04:46:12.609Z,0
2018-01-03T04:47:12.607Z,0
2018-01-03T04:48:13.586Z,0
2018-01-03T04:49:12.368Z,0
2018-01-03T04:50:13.217Z,0
2018-01-03T04:51:12.823Z,0
2018-01-03T04:52:13.138Z,0
2018-01-03T04:53:14.062Z,0
2018-01-03T04:54:15.228Z,0
2018-01-03T04:55:14.515Z,0
2018-01-03T04:56:13.756Z,0
2018-01-03T04:57:13.956Z,0
2018-01-03T04:58:14.121Z,0
2018-01-03T04:59:14.829Z,0
2018-01-03T05:00:29.709Z,0
2018-01-03T05:01:14.863Z,0
2018-01-03T05:02:14.374Z,0
2018-01-03T05:03:15.208Z,0
2018-01-03T05:04:14.845Z,0
2018-01-03T05:05:15.397Z,0
2018-01-03T05:06:15.337Z,0
2018-01-03T05:07:15.883Z,0
2018-01-03T05:08:16.051Z,0
2018-01-03T05:09:16.252Z,0
2018-01-03T05:10:16.225Z,0
2018-01-03T05:11:16.363Z,0
2018-01-03T05:12:16.295Z,0
2018-01-03T05:13:16.866Z,0
2018-01-03T05:14:17.282Z,0
2018-01-03T05:15:17.057Z,0
2018-01-03T05:16:17.325Z,0
2018-01-03T05:17:17.744Z,0
2018-01-03T05:18:17.523Z,0
2018-01-03T05:19:18.038Z,0
2018-01-03T05:20:18.304Z,0
2018-01-03T05:21:18.270Z,0
2018-01-03T05:22:17.809Z,0
2018-01-03T05:23:18.048Z,0
2018-01-03T05:24:18.243Z,0
2018-01-03T05:25:18.652Z,0
2018-01-03T05:26:18.157Z,0
2018-01-03T05:27:18.832Z,0
2018-01-03T05:28:18.859Z,0
2018-01-03T05:29:19.185Z,0
2018-01-03T05:30:18.847Z,0
2018-01-03T05:31:18.888Z,0
2018-01-03T05:32:18.992Z,0
2018-01-03T05:33:18.713Z,0
2018-01-03T05:34:19.160Z,0
2018-01-03T05:35:18.924Z,0
2018-01-03T05:36:19.637Z,0
2018-01-03T05:37:19.149Z,0
2018-01-03T05:38:20.030Z,0
2018-01-03T05:39:19.727Z,0
2018-01-03T05:40:21.123Z,0
2018-01-03T05:41:20.908Z,0
2018-01-03T05:42:20.675Z,0
2018-01-03T05:43:20.932Z,0
2018-01-03T05:44:21.514Z,0
2018-01-03T05:45:20.709Z,0
2018-01-03T05:46:20.920Z,0
2018-01-03T05:47:21.392Z,0
2018-01-03T05:48:21.459Z,0
2018-01-03T05:49:21.465Z,0
2018-01-03T05:50:21.642Z,0
2018-01-03T05:51:21.839Z,0
2018-01-03T05:52:22.384Z,0
2018-01-03T05:53:22.408Z,0
2018-01-03T05:54:22.170Z,0
2018-01-03T05:55:22.347Z,0
2018-01-03T05:56:22.792Z,0
2018-01-03T05:57:22.793Z,0
2018-01-03T05:58:22.580Z,0
2018-01-03T05:59:22.858Z,0
2018-01-03T06:00:27.809Z,0
2018-01-03T06:01:27.082Z,0
2018-01-03T06:02:27.627Z,0
2018-01-03T06:03:28.226Z,0
2018-01-03T06:04:28.108Z,0
2018-01-03T06:05:27.933Z,0
2018-01-03T06:06:28.485Z,0
2018-01-03T06:07:28.600Z,0
2018-01-03T06:08:28.844Z,0
2018-01-03T06:09:28.875Z,0
2018-01-03T06:10:28.960Z,0
2018-01-03T06:11:28.986Z,0
2018-01-03T06:12:28.522Z,0
2018-01-03T06:13:28.794Z,0
2018-01-03T06:14:29.139Z,0
2018-01-03T06:15:28.824Z,0
2018-01-03T06:16:29.070Z,0
2018-01-03T06:17:29.030Z,0
2018-01-03T06:18:29.232Z,0
2018-01-03T06:19:29.010Z,0
2018-01-03T06:20:29.175Z,0
2018-01-03T06:21:29.743Z,0
2018-01-03T06:22:30.128Z,0
2018-01-03T06:23:30.147Z,0
2018-01-03T06:24:29.444Z,0
2018-01-03T06:25:29.782Z,0
2018-01-03T06:26:30.375Z,0
2018-01-03T06:27:30.312Z,0
2018-01-03T06:28:30.140Z,0
2018-01-03T06:29:30.203Z,0
2018-01-03T06:30:30.595Z,0
2018-01-03T06:31:30.619Z,0
2018-01-03T06:32:30.804Z,0
2018-01-03T06:33:30.753Z,0
2018-01-03T06:34:31.927Z,0
2018-01-03T06:35:31.157Z,0
2018-01-03T06:36:30.306Z,0
2018-01-03T06:37:30.908Z,0
2018-01-03T06:38:30.593Z,0
2018-01-03T06:39:30.689Z,0
2018-01-03T06:40:31.058Z,0
2018-01-03T06:41:31.719Z,0
2018-01-03T06:42:31.495Z,0
2018-01-03T06:43:31.243Z,0
2018-01-03T06:44:31.670Z,0
2018-01-03T06:45:31.865Z,0
2018-01-03T06:46:32.618Z,0
2018-01-03T06:47:32.430Z,0
2018-01-03T06:48:32.694Z,0
2018-01-03T06:49:32.648Z,0
2018-01-03T06:50:32.906Z,0
2018-01-03T06:51:33.223Z,0
2018-01-03T06:52:33.377Z,0
2018-01-03T06:53:33.901Z,0
2018-01-03T06:54:34.038Z,4
2018-01-03T06:55:34.422Z,4
2018-01-03T06:56:34.452Z,0
2018-01-03T06:57:33.935Z,0
2018-01-03T06:58:34.478Z,0
2018-01-03T06:59:34.824Z,0
2018-01-03T07:00:34.774Z,4
2018-01-03T07:01:34.465Z,4
2018-01-03T07:02:34.199Z,4
2018-01-03T07:03:34.996Z,4
2018-01-03T07:04:34.754Z,4
2018-01-03T07:05:35.135Z,4
2018-01-03T07:06:35.798Z,8
2018-01-03T07:07:35.571Z,4
2018-01-03T07:08:36.090Z,8
2018-01-03T07:09:36.200Z,8
2018-01-03T07:10:35.738Z,8
2018-01-03T07:11:36.092Z,8
2018-01-03T07:12:36.200Z,8
2018-01-03T07:13:36.575Z,8
2018-01-03T07:14:36.541Z,8
2018-01-03T07:15:36.896Z,8
2018-01-03T07:16:36.352Z,8
2018-01-03T07:17:36.907Z,12
2018-01-03T07:18:36.851Z,12
2018-01-03T07:19:36.485Z,12
2018-01-03T07:20:37.332Z,12
2018-01-03T07:21:37.526Z,12
2018-01-03T07:22:36.976Z,8
2018-01-03T07:23:37.093Z,8
2018-01-03T07:24:36.850Z,12
2018-01-03T07:25:37.705Z,12
2018-01-03T07:26:37.442Z,12
2018-01-03T07:27:37.690Z,12
2018-01-03T07:28:38.129Z,12
2018-01-03T07:29:37.846Z,12
2018-01-03T07:30:38.497Z,16
2018-01-03T07:31:38.287Z,12
2018-01-03T07:32:39.087Z,16
2018-01-03T07:33:38.805Z,16
2018-01-03T07:34:38.619Z,12
2018-01-03T07:35:39.028Z,12
2018-01-03T07:36:39.339Z,16
2018-01-03T07:37:39.272Z,12
2018-01-03T07:38:39.185Z,12
2018-01-03T07:39:39.418Z,12
2018-01-03T07:40:39.930Z,8
2018-01-03T07:41:39.889Z,12
2018-01-03T07:42:40.010Z,20
2018-01-03T07:43:39.888Z,20
2018-01-03T07:44:40.734Z,28
2018-01-03T07:45:40.073Z,32
2018-01-03T07:46:40.369Z,32
2018-01-03T07:47:40.236Z,36
2018-01-03T07:48:40.472Z,32
2018-01-03T07:49:40.107Z,40
2018-01-03T07:50:40.344Z,40
2018-01-03T07:51:40.966Z,36
2018-01-03T07:52:42.313Z,44
2018-01-03T07:53:40.472Z,44
2018-01-03T07:54:43.544Z,52
2018-01-03T07:55:41.977Z,52
2018-01-03T07:56:42.316Z,52
2018-01-03T07:57:42.513Z,36
2018-01-03T07:58:42.036Z,52
2018-01-03T07:59:43.401Z,72
2018-01-03T08:00:57.281Z,92
2018-01-03T08:01:42.366Z,132
2018-01-03T08:02:42.214Z,168
2018-01-03T08:03:42.389Z,172
2018-01-03T08:04:43.483Z,228
2018-01-03T08:05:42.945Z,232
2018-01-03T08:06:42.937Z,244
2018-01-03T08:07:43.128Z,208
2018-01-03T08:08:43.334Z,180
2018-01-03T08:09:43.247Z,160
2018-01-03T08:10:44.069Z,204
2018-01-03T08:11:44.274Z,204
2018-01-03T08:12:43.505Z,248
2018-01-03T08:13:44.427Z,224
2018-01-03T08:14:44.645Z,220
2018-01-03T08:15:45.024Z,276
2018-01-03T08:16:45.853Z,304
2018-01-03T08:17:45.649Z,260
2018-01-03T08:18:44.520Z,244
2018-01-03T08:19:45.166Z,200
2018-01-03T08:20:45.514Z,168
2018-01-03T08:21:44.609Z,160
2018-01-03T08:22:45.080Z,156
2018-01-03T08:23:44.369Z,128
2018-01-03T08:24:45.143Z,124
2018-01-03T08:25:45.506Z,120
2018-01-03T08:26:44.814Z,124
2018-01-03T08:27:44.538Z,120
2018-01-03T08:28:44.621Z,176
2018-01-03T08:29:45.073Z,200
2018-01-03T08:30:45.447Z,200
2018-01-03T08:31:44.772Z,140
2018-01-03T08:32:44.322Z,128
2018-01-03T08:33:44.783Z,136
2018-01-03T08:34:45.608Z,160
2018-01-03T08:35:45.107Z,184
2018-01-03T08:36:45.532Z,268
2018-01-03T08:37:44.819Z,224
2018-01-03T08:38:45.766Z,172
2018-01-03T08:39:45.544Z,228
2018-01-03T08:40:45.478Z,252
2018-01-03T08:41:45.200Z,224
2018-01-03T08:42:45.649Z,304
2018-01-03T08:44:00.221Z,380
2018-01-03T08:44:45.260Z,416
2018-01-03T08:45:45.797Z,640
2018-01-03T08:46:45.910Z,708
2018-01-03T08:47:45.555Z,860
2018-01-03T08:49:00.189Z,1148
2018-01-03T08:49:45.397Z,1168
2018-01-03T08:50:45.696Z,1116
2018-01-03T08:51:45.232Z,1180
2018-01-03T08:52:45.758Z,980
2018-01-03T08:53:45.820Z,1032
2018-01-03T08:54:46.419Z,940
2018-01-03T08:55:45.974Z,976
2018-01-03T08:56:46.101Z,1044
2018-01-03T08:57:46.345Z,1164
2018-01-03T08:58:45.958Z,1368
2018-01-03T08:59:46.784Z,1580
2018-01-03T09:00:45.838Z,1692
2018-01-03T09:01:46.057Z,1956
2018-01-03T09:02:46.476Z,2092
2018-01-03T09:03:46.170Z,2212
2018-01-03T09:04:46.730Z,1924
2018-01-03T09:05:46.931Z,1820
2018-01-03T09:06:46.409Z,1832
2018-01-03T09:07:46.833Z,1768
2018-01-03T09:08:46.746Z,1696
2018-01-03T09:09:46.722Z,1680
2018-01-03T09:10:46.543Z,1668
2018-01-03T09:11:46.832Z,1704
2018-01-03T09:12:47.762Z,1436
2018-01-03T09:13:47.436Z,1396
2018-01-03T09:14:50.087Z,1344
2018-01-03T09:15:49.227Z,1448
2018-01-03T09:16:48.542Z,1544
2018-01-03T09:17:49.033Z,1588
2018-01-03T09:18:48.571Z,1580
2018-01-03T09:19:48.245Z,1528
2018-01-03T09:20:49.157Z,1560
2018-01-03T09:21:49.479Z,1604
2018-01-03T09:22:48.568Z,1536
2018-01-03T09:23:49.560Z,1548
2018-01-03T09:24:48.736Z,1456
2018-01-03T09:25:49.827Z,1404
2018-01-03T09:26:49.202Z,1528
2018-01-03T09:27:49.862Z,1568
2018-01-03T09:28:49.675Z,1456
2018-01-03T09:29:49.394Z,1408
2018-01-03T09:30:50.157Z,1344
2018-01-03T09:31:49.533Z,1300
2018-01-03T09:32:49.276Z,1160
2018-01-03T09:33:49.823Z,1120
2018-01-03T09:34:49.438Z,1180
2018-01-03T09:35:51.321Z,1448
2018-01-03T09:36:50.256Z,1592
2018-01-03T09:37:50.386Z,1660
2018-01-03T09:38:50.841Z,1788
2018-01-03T09:39:50.250Z,1796
2018-01-03T09:40:50.892Z,1752
2018-01-03T09:41:50.894Z,1732
2018-01-03T09:42:50.711Z,1632
2018-01-03T09:43:52.061Z,1584
2018-01-03T09:44:51.403Z,1508
2018-01-03T09:45:51.211Z,1336
2018-01-03T09:46:51.550Z,1180
2018-01-03T09:47:51.639Z,1112
2018-01-03T09:48:51.664Z,1052
2018-01-03T09:49:52.915Z,996
2018-01-03T09:50:52.709Z,896
2018-01-03T09:51:52.847Z,888
2018-01-03T09:52:52.580Z,976
2018-01-03T09:53:52.665Z,1320
2018-01-03T09:54:53.207Z,1416
2018-01-03T09:55:53.232Z,1528
2018-01-03T09:56:53.304Z,1604
2018-01-03T09:57:54.201Z,1724
2018-01-03T09:58:54.169Z,1800
2018-01-03T09:59:55.317Z,1824
2018-01-03T10:00:54.733Z,1764
2018-01-03T10:01:55.741Z,1320
2018-01-03T10:02:55.443Z,1064
2018-01-03T10:03:55.102Z,1336
2018-01-03T10:04:55.370Z,1484
2018-01-03T10:05:55.299Z,1608
2018-01-03T10:06:55.988Z,1484
2018-01-03T10:07:55.296Z,1236
2018-01-03T10:08:55.311Z,1308
2018-01-03T10:09:56.206Z,1608
2018-01-03T10:10:55.436Z,1844
2018-01-03T10:11:55.923Z,1928
2018-01-03T10:12:56.993Z,1844
2018-01-03T10:13:57.478Z,1820
2018-01-03T10:14:56.386Z,1848
2018-01-03T10:15:56.932Z,1776
2018-01-03T10:16:56.681Z,1484
2018-01-03T10:17:56.174Z,1756
2018-01-03T10:18:56.853Z,1924
2018-01-03T10:19:56.544Z,2048
2018-01-03T10:20:56.836Z,2124
2018-01-03T10:21:57.105Z,2148
2018-01-03T10:22:57.223Z,2168
2018-01-03T10:23:57.625Z,2144
2018-01-03T10:24:57.499Z,2092
2018-01-03T10:25:57.417Z,1996
2018-01-03T10:26:57.529Z,1844
2018-01-03T10:27:57.648Z,1788
2018-01-03T10:28:57.412Z,1876
2018-01-03T10:29:57.957Z,1888
2018-01-03T10:30:57.898Z,2088
2018-01-03T10:31:57.417Z,1972
2018-01-03T10:32:58.057Z,1976
2018-01-03T10:33:57.815Z,1828
2018-01-03T10:34:58.818Z,1652
2018-01-03T10:35:58.268Z,1564
2018-01-03T10:36:58.228Z,1476
2018-01-03T10:37:58.756Z,1408
2018-01-03T10:38:58.910Z,1360
2018-01-03T10:39:58.684Z,1356
2018-01-03T10:40:58.918Z,1284
2018-01-03T10:41:59.771Z,1224
2018-01-03T10:42:59.217Z,1228
2018-01-03T10:43:59.497Z,1268
2018-01-03T10:45:00.541Z,1364
2018-01-03T10:45:59.772Z,1744
2018-01-03T10:46:59.602Z,1884
2018-01-03T10:48:00.616Z,2060
2018-01-03T10:49:00.071Z,2292
2018-01-03T10:49:59.719Z,2588
2018-01-03T10:50:59.426Z,2664
2018-01-03T10:51:59.348Z,2736
2018-01-03T10:52:59.714Z,2596
2018-01-03T10:53:59.673Z,2576
2018-01-03T10:55:00.940Z,2544
2018-01-03T10:56:00.197Z,2244
2018-01-03T10:57:00.384Z,2296
2018-01-03T10:58:00.169Z,2380
2018-01-03T10:59:00.558Z,2284
2018-01-03T11:00:00.639Z,2168
2018-01-03T11:01:15.469Z,3052
2018-01-03T11:02:01.203Z,3024
2018-01-03T11:03:01.013Z,2264
2018-01-03T11:04:01.368Z,2580
2018-01-03T11:05:01.058Z,2940
2018-01-03T11:06:01.158Z,2676
2018-01-03T11:07:01.150Z,2280
2018-01-03T11:08:01.720Z,1900
2018-01-03T11:09:02.462Z,1868
2018-01-03T11:10:01.832Z,2280
2018-01-03T11:11:02.141Z,2440
2018-01-03T11:12:02.363Z,2476
2018-01-03T11:13:02.062Z,2504
2018-01-03T11:14:02.347Z,2412
2018-01-03T11:15:02.711Z,2336
2018-01-03T11:16:03.284Z,2496
2018-01-03T11:17:04.135Z,2392
2018-01-03T11:18:04.488Z,2556
2018-01-03T11:19:04.165Z,2800
2018-01-03T11:20:04.728Z,3344
2018-01-03T11:21:04.798Z,3704
2018-01-03T11:22:04.309Z,4532
2018-01-03T11:23:04.940Z,4616
2018-01-03T11:24:04.969Z,4564
2018-01-03T11:25:05.318Z,5352
2018-01-03T11:26:05.035Z,5612
2018-01-03T11:27:05.627Z,5372
2018-01-03T11:28:04.754Z,5848
2018-01-03T11:29:04.983Z,6700
2018-01-03T11:30:04.306Z,6508
2018-01-03T11:31:05.047Z,6544
2018-01-03T11:32:04.384Z,6736
2018-01-03T11:33:04.874Z,6392
2018-01-03T11:34:05.288Z,6136
2018-01-03T11:35:05.220Z,5960
2018-01-03T11:36:04.991Z,5380
2018-01-03T11:37:05.230Z,4712
2018-01-03T11:38:05.028Z,4440
2018-01-03T11:39:05.322Z,4388
2018-01-03T11:40:05.449Z,4148
2018-01-03T11:41:04.859Z,3912
2018-01-03T11:42:05.626Z,3428
2018-01-03T11:43:04.923Z,3168
2018-01-03T11:44:05.951Z,3060
2018-01-03T11:45:05.748Z,3128
2018-01-03T11:46:05.303Z,3240
2018-01-03T11:47:05.674Z,3180
2018-01-03T11:48:05.956Z,2980
2018-01-03T11:49:06.311Z,2632
2018-01-03T11:50:06.019Z,2396
2018-01-03T11:51:06.593Z,2156
2018-01-03T11:52:06.057Z,1888
2018-01-03T11:53:06.189Z,1812
2018-01-03T11:54:06.369Z,1400
2018-01-03T11:55:06.441Z,1308
2018-01-03T11:56:06.229Z,956
2018-01-03T11:57:06.235Z,1256
2018-01-03T11:58:06.823Z,1056
2018-01-03T11:59:06.740Z,740
2018-01-03T12:00:21.585Z,380
2018-01-03T12:01:07.137Z,396
2018-01-03T12:02:07.288Z,404
2018-01-03T12:03:07.647Z,436
2018-01-03T12:04:07.281Z,588
2018-01-03T12:05:08.020Z,712
2018-01-03T12:06:07.071Z,1128
2018-01-03T12:07:07.191Z,1936
2018-01-03T12:08:07.535Z,2424
2018-01-03T12:09:07.467Z,2800
2018-01-03T12:10:07.327Z,3404
2018-01-03T12:11:07.500Z,3740
2018-01-03T12:12:07.319Z,3744
2018-01-03T12:13:07.838Z,3932
2018-01-03T12:14:08.164Z,4196
2018-01-03T12:15:07.785Z,3884
2018-01-03T12:16:07.455Z,3872
2018-01-03T12:17:09.292Z,3772
2018-01-03T12:18:08.232Z,3620
2018-01-03T12:19:10.364Z,3404
2018-01-03T12:20:09.515Z,3224
2018-01-03T12:21:08.618Z,2876
2018-01-03T12:22:08.581Z,2740
2018-01-03T12:23:08.671Z,2660
2018-01-03T12:24:09.519Z,2376
2018-01-03T12:25:09.188Z,2492
2018-01-03T12:26:09.307Z,2332
2018-01-03T12:27:08.971Z,2496
2018-01-03T12:28:08.704Z,2348
2018-01-03T12:29:09.728Z,2256
2018-01-03T12:30:09.399Z,1904
2018-01-03T12:31:09.848Z,2268
2018-01-03T12:32:10.692Z,2396
2018-01-03T12:33:11.124Z,2200
2018-01-03T12:34:11.160Z,2256
2018-01-03T12:35:10.452Z,2796
2018-01-03T12:36:10.883Z,2920
2018-01-03T12:37:11.182Z,2736
2018-01-03T12:38:11.494Z,2624
2018-01-03T12:39:10.151Z,2920
2018-01-03T12:40:10.728Z,2984
2018-01-03T12:41:10.697Z,2932
2018-01-03T12:42:11.022Z,2776
2018-01-03T12:43:11.352Z,2488
2018-01-03T12:44:11.735Z,2248
2018-01-03T12:45:11.276Z,2024
2018-01-03T12:46:11.678Z,2104
2018-01-03T12:47:11.107Z,2152
2018-01-03T12:48:10.089Z,2152
2018-01-03T12:49:10.914Z,2304
2018-01-03T12:50:09.710Z,2380
2018-01-03T12:51:09.936Z,2880
2018-01-03T12:52:09.663Z,3424
2018-01-03T12:53:09.949Z,2832
2018-01-03T12:54:09.980Z,2292
2018-01-03T12:55:09.659Z,1760
2018-01-03T12:56:10.004Z,1652
2018-01-03T12:57:09.926Z,1708
2018-01-03T12:58:10.256Z,1220
2018-01-03T12:59:10.972Z,1100
2018-01-03T13:00:25.448Z,992
2018-01-03T13:01:10.733Z,1084
2018-01-03T13:02:10.752Z,1892
2018-01-03T13:03:11.488Z,2732
2018-01-03T13:04:10.602Z,2780
2018-01-03T13:05:11.190Z,2160
2018-01-03T13:06:10.869Z,1356
2018-01-03T13:07:11.110Z,1280
2018-01-03T13:08:10.902Z,1168
2018-01-03T13:09:11.826Z,1184
2018-01-03T13:10:11.246Z,1096
2018-01-03T13:11:11.931Z,1036
2018-01-03T13:12:11.899Z,912
2018-01-03T13:13:11.982Z,1080
2018-01-03T13:14:11.941Z,1236
2018-01-03T13:15:12.208Z,1476
2018-01-03T13:16:12.271Z,1808
2018-01-03T13:17:12.262Z,2072
2018-01-03T13:18:11.890Z,1900
2018-01-03T13:19:13.520Z,1452
2018-01-03T13:20:13.463Z,1340
2018-01-03T13:21:14.313Z,1264
2018-01-03T13:22:13.011Z,1244
2018-01-03T13:23:12.740Z,1224
2018-01-03T13:24:13.049Z,1208
2018-01-03T13:25:12.799Z,1196
2018-01-03T13:26:13.024Z,1184
2018-01-03T13:27:13.197Z,1180
2018-01-03T13:28:13.212Z,1164
2018-01-03T13:29:13.665Z,1156
2018-01-03T13:30:13.668Z,1144
2018-01-03T13:31:14.111Z,1132
2018-01-03T13:32:14.103Z,1124
2018-01-03T13:33:13.536Z,1112
2018-01-03T13:34:14.143Z,1108
2018-01-03T13:35:14.092Z,1100
2018-01-03T13:36:14.637Z,1088
2018-01-03T13:37:14.690Z,1080
2018-01-03T13:38:14.366Z,1072
2018-01-03T13:39:14.807Z,1060
2018-01-03T13:40:15.008Z,1052
2018-01-03T13:41:16.157Z,1044
2018-01-03T13:42:15.824Z,1036
2018-01-03T13:43:15.800Z,1028
2018-01-03T13:44:16.209Z,1020
2018-01-03T13:45:16.462Z,1012
2018-01-03T13:46:16.992Z,1004
2018-01-03T13:47:16.762Z,988
2018-01-03T13:48:17.231Z,1000
2018-01-03T13:49:17.268Z,1040
2018-01-03T13:50:17.675Z,1104
2018-01-03T13:51:16.903Z,1236
2018-01-03T13:52:17.502Z,1216
2018-01-03T13:53:17.633Z,1136
2018-01-03T13:54:18.513Z,1112
2018-01-03T13:55:18.501Z,1140
2018-01-03T13:56:18.620Z,1164
2018-01-03T13:57:18.210Z,1096
2018-01-03T13:58:18.489Z,908
2018-01-03T13:59:18.227Z,880
2018-01-03T14:00:18.261Z,884
2018-01-03T14:01:18.658Z,852
2018-01-03T14:02:18.864Z,816
2018-01-03T14:03:20.095Z,788
2018-01-03T14:04:19.099Z,764
2018-01-03T14:05:20.359Z,740
2018-01-03T14:06:20.311Z,716
2018-01-03T14:07:19.509Z,688
2018-01-03T14:08:18.867Z,668
2018-01-03T14:09:19.334Z,648
2018-01-03T14:10:19.207Z,632
2018-01-03T14:11:18.810Z,616
2018-01-03T14:12:20.417Z,636